sensor_id;sensor_type;location;lat;lon;timestamp;temperature;humidity
16408;DHT22;8313;49.894;8.084;2022-10-16T00:02:05;15.90;99.90
16408;DHT22;8313;49.894;8.084;2022-10-16T00:04:31;15.90;99.90
16408;DHT22;8313;49.894;8.084;2022-10-16T00:06:57;15.90;99.90
16408;DHT22;8313;49.894;8.084;2022-10-16T00:09:22;15.90;99.90
16408;DHT22;8313;49.894;8.084;2022-10-16T00:11:48;15.90;99.90
16408;DHT22;8313;49.894;8.084;2022-10-16T00:14:15;15.90;99.90
16408;DHT22;8313;49.894;8.084;2022-10-16T00:16:41;15.90;99.90
16408;DHT22;8313;49.894;8.084;2022-10-16T00:19:07;15.90;99.90
16408;DHT22;8313;49.894;8.084;2022-10-16T00:21:37;15.90;99.90
16408;DHT22;8313;49.894;8.084;2022-10-16T00:24:05;15.90;99.90
16408;DHT22;8313;49.894;8.084;2022-10-16T00:26:33;15.90;99.90
16408;DHT22;8313;49.894;8.084;2022-10-16T00:28:59;15.90;99.90
16408;DHT22;8313;49.894;8.084;2022-10-16T00:31:25;15.90;99.90
16408;DHT22;8313;49.894;8.084;2022-10-16T00:33:51;15.90;99.90
16408;DHT22;8313;49.894;8.084;2022-10-16T00:36:20;15.90;99.90
16408;DHT22;8313;49.894;8.084;2022-10-16T00:38:46;15.90;99.90
16408;DHT22;8313;49.894;8.084;2022-10-16T00:41:15;15.90;99.90
16408;DHT22;8313;49.894;8.084;2022-10-16T00:48:52;15.90;99.90
16408;DHT22;8313;49.894;8.084;2022-10-16T00:51:24;15.90;99.90
16408;DHT22;8313;49.894;8.084;2022-10-16T00:53:51;15.80;99.90
16408;DHT22;8313;49.894;8.084;2022-10-16T00:56:17;15.80;99.90
16408;DHT22;8313;49.894;8.084;2022-10-16T00:58:43;15.80;99.90
16408;DHT22;8313;49.894;8.084;2022-10-16T01:01:09;15.80;99.90
16408;DHT22;8313;49.894;8.084;2022-10-16T01:03:36;15.80;99.90
16408;DHT22;8313;49.894;8.084;2022-10-16T01:11:57;15.80;99.90
16408;DHT22;8313;49.894;8.084;2022-10-16T01:17:19;15.80;99.90
16408;DHT22;8313;49.894;8.084;2022-10-16T01:20:07;15.80;99.90
16408;DHT22;8313;49.894;8.084;2022-10-16T01:23:05;15.80;99.90
16408;DHT22;8313;49.894;8.084;2022-10-16T01:28:11;15.80;99.90
16408;DHT22;8313;49.894;8.084;2022-10-16T01:30:40;15.80;99.90
16408;DHT22;8313;49.894;8.084;2022-10-16T01:33:16;15.80;99.90
16408;DHT22;8313;49.894;8.084;2022-10-16T01:35:52;15.80;99.90
16408;DHT22;8313;49.894;8.084;2022-10-16T01:40:51;15.80;99.90
16408;DHT22;8313;49.894;8.084;2022-10-16T01:43:22;15.80;99.90
16408;DHT22;8313;49.894;8.084;2022-10-16T01:45:50;15.80;99.90
16408;DHT22;8313;49.894;8.084;2022-10-16T01:48:18;15.80;99.90
16408;DHT22;8313;49.894;8.084;2022-10-16T01:50:59;15.80;99.90
16408;DHT22;8313;49.894;8.084;2022-10-16T01:53:26;15.80;99.90
16408;DHT22;8313;49.894;8.084;2022-10-16T01:55:54;15.80;99.90
16408;DHT22;8313;49.894;8.084;2022-10-16T01:58:23;15.80;99.90
16408;DHT22;8313;49.894;8.084;2022-10-16T02:00:49;15.80;99.90
16408;DHT22;8313;49.894;8.084;2022-10-16T02:03:18;15.80;99.90
16408;DHT22;8313;49.894;8.084;2022-10-16T02:05:56;15.80;99.90
16408;DHT22;8313;49.894;8.084;2022-10-16T02:08:24;15.80;99.90
16408;DHT22;8313;49.894;8.084;2022-10-16T02:10:51;15.70;99.90
16408;DHT22;8313;49.894;8.084;2022-10-16T02:13:21;15.70;99.90
16408;DHT22;8313;49.894;8.084;2022-10-16T02:15:49;15.70;99.90
16408;DHT22;8313;49.894;8.084;2022-10-16T02:18:14;15.70;99.90
16408;DHT22;8313;49.894;8.084;2022-10-16T02:21:06;15.70;99.90
16408;DHT22;8313;49.894;8.084;2022-10-16T02:23:54;15.70;99.90
16408;DHT22;8313;49.894;8.084;2022-10-16T02:26:52;15.70;99.90
16408;DHT22;8313;49.894;8.084;2022-10-16T02:29:23;15.70;99.90
16408;DHT22;8313;49.894;8.084;2022-10-16T02:31:55;15.70;99.90
16408;DHT22;8313;49.894;8.084;2022-10-16T02:34:22;15.70;99.90
16408;DHT22;8313;49.894;8.084;2022-10-16T02:36:50;15.70;99.90
16408;DHT22;8313;49.894;8.084;2022-10-16T02:39:17;15.70;99.90
16408;DHT22;8313;49.894;8.084;2022-10-16T02:41:43;15.70;99.90
16408;DHT22;8313;49.894;8.084;2022-10-16T02:44:09;15.70;99.90
16408;DHT22;8313;49.894;8.084;2022-10-16T02:46:35;15.70;99.90
16408;DHT22;8313;49.894;8.084;2022-10-16T02:49:01;15.70;99.90
16408;DHT22;8313;49.894;8.084;2022-10-16T02:51:26;15.70;99.90
16408;DHT22;8313;49.894;8.084;2022-10-16T02:53:52;15.70;99.90
16408;DHT22;8313;49.894;8.084;2022-10-16T02:56:18;15.70;99.90
16408;DHT22;8313;49.894;8.084;2022-10-16T02:58:44;15.70;99.90
16408;DHT22;8313;49.894;8.084;2022-10-16T03:01:10;15.70;99.90
16408;DHT22;8313;49.894;8.084;2022-10-16T03:03:37;15.70;99.90
16408;DHT22;8313;49.894;8.084;2022-10-16T03:06:03;15.70;99.90
16408;DHT22;8313;49.894;8.084;2022-10-16T03:08:29;15.70;99.90
16408;DHT22;8313;49.894;8.084;2022-10-16T03:10:54;15.70;99.90
16408;DHT22;8313;49.894;8.084;2022-10-16T03:13:20;15.70;99.90
16408;DHT22;8313;49.894;8.084;2022-10-16T03:15:46;15.70;99.90
16408;DHT22;8313;49.894;8.084;2022-10-16T03:18:12;15.70;99.90
16408;DHT22;8313;49.894;8.084;2022-10-16T03:20:37;15.70;99.90
16408;DHT22;8313;49.894;8.084;2022-10-16T03:23:03;15.70;99.90
16408;DHT22;8313;49.894;8.084;2022-10-16T03:25:29;15.70;99.90
16408;DHT22;8313;49.894;8.084;2022-10-16T03:27:54;15.70;99.90
16408;DHT22;8313;49.894;8.084;2022-10-16T03:30:20;15.70;99.90
16408;DHT22;8313;49.894;8.084;2022-10-16T03:32:46;15.70;99.90
16408;DHT22;8313;49.894;8.084;2022-10-16T03:35:12;15.70;99.90
16408;DHT22;8313;49.894;8.084;2022-10-16T03:37:38;15.70;99.90
16408;DHT22;8313;49.894;8.084;2022-10-16T03:40:04;15.70;99.90
16408;DHT22;8313;49.894;8.084;2022-10-16T03:42:30;15.70;99.90
16408;DHT22;8313;49.894;8.084;2022-10-16T03:44:56;15.70;99.90
16408;DHT22;8313;49.894;8.084;2022-10-16T03:47:22;15.70;99.90
16408;DHT22;8313;49.894;8.084;2022-10-16T03:49:49;15.70;99.90
16408;DHT22;8313;49.894;8.084;2022-10-16T03:52:16;15.70;99.90
16408;DHT22;8313;49.894;8.084;2022-10-16T03:54:41;15.70;99.90
16408;DHT22;8313;49.894;8.084;2022-10-16T03:57:07;15.70;99.90
16408;DHT22;8313;49.894;8.084;2022-10-16T03:59:33;15.70;99.90
16408;DHT22;8313;49.894;8.084;2022-10-16T04:01:58;15.70;99.90
16408;DHT22;8313;49.894;8.084;2022-10-16T04:04:24;15.70;99.90
16408;DHT22;8313;49.894;8.084;2022-10-16T04:06:50;15.70;99.90
16408;DHT22;8313;49.894;8.084;2022-10-16T04:09:16;15.70;99.90
16408;DHT22;8313;49.894;8.084;2022-10-16T04:11:42;15.70;99.90
16408;DHT22;8313;49.894;8.084;2022-10-16T04:14:08;15.70;99.90
16408;DHT22;8313;49.894;8.084;2022-10-16T04:16:34;15.70;99.90
16408;DHT22;8313;49.894;8.084;2022-10-16T04:18:59;15.70;99.90
16408;DHT22;8313;49.894;8.084;2022-10-16T04:21:26;15.70;99.90
16408;DHT22;8313;49.894;8.084;2022-10-16T04:23:52;15.70;99.90
16408;DHT22;8313;49.894;8.084;2022-10-16T04:26:17;15.70;99.90
16408;DHT22;8313;49.894;8.084;2022-10-16T04:28:43;15.70;99.90
16408;DHT22;8313;49.894;8.084;2022-10-16T04:31:09;15.70;99.90
16408;DHT22;8313;49.894;8.084;2022-10-16T04:33:34;15.70;99.90
16408;DHT22;8313;49.894;8.084;2022-10-16T04:36:01;15.70;99.90
16408;DHT22;8313;49.894;8.084;2022-10-16T04:38:27;15.70;99.90
16408;DHT22;8313;49.894;8.084;2022-10-16T04:40:53;15.70;99.90
16408;DHT22;8313;49.894;8.084;2022-10-16T04:43:19;15.60;99.90
16408;DHT22;8313;49.894;8.084;2022-10-16T04:45:45;15.60;99.90
16408;DHT22;8313;49.894;8.084;2022-10-16T04:48:11;15.60;99.90
16408;DHT22;8313;49.894;8.084;2022-10-16T04:50:36;15.60;99.90
16408;DHT22;8313;49.894;8.084;2022-10-16T04:53:05;15.60;99.90
16408;DHT22;8313;49.894;8.084;2022-10-16T04:55:31;15.60;99.90
16408;DHT22;8313;49.894;8.084;2022-10-16T04:57:57;15.60;99.90
16408;DHT22;8313;49.894;8.084;2022-10-16T05:00:23;15.60;99.90
16408;DHT22;8313;49.894;8.084;2022-10-16T05:02:51;15.60;99.90
16408;DHT22;8313;49.894;8.084;2022-10-16T05:05:17;15.60;99.90
16408;DHT22;8313;49.894;8.084;2022-10-16T05:07:46;15.60;99.90
16408;DHT22;8313;49.894;8.084;2022-10-16T05:10:11;15.60;99.90
16408;DHT22;8313;49.894;8.084;2022-10-16T05:12:37;15.60;99.90
16408;DHT22;8313;49.894;8.084;2022-10-16T05:15:03;15.60;99.90
16408;DHT22;8313;49.894;8.084;2022-10-16T05:17:29;15.60;99.90
16408;DHT22;8313;49.894;8.084;2022-10-16T05:19:55;15.60;99.90
16408;DHT22;8313;49.894;8.084;2022-10-16T05:22:20;15.60;99.90
16408;DHT22;8313;49.894;8.084;2022-10-16T05:24:46;15.60;99.90
16408;DHT22;8313;49.894;8.084;2022-10-16T05:27:12;15.60;99.90
16408;DHT22;8313;49.894;8.084;2022-10-16T05:29:45;15.60;99.90
16408;DHT22;8313;49.894;8.084;2022-10-16T05:32:12;15.60;99.90
16408;DHT22;8313;49.894;8.084;2022-10-16T05:34:38;15.60;99.90
16408;DHT22;8313;49.894;8.084;2022-10-16T05:37:03;15.50;99.90
16408;DHT22;8313;49.894;8.084;2022-10-16T05:39:29;15.50;99.90
16408;DHT22;8313;49.894;8.084;2022-10-16T05:41:55;15.50;99.90
16408;DHT22;8313;49.894;8.084;2022-10-16T05:44:20;15.50;99.90
16408;DHT22;8313;49.894;8.084;2022-10-16T05:46:46;15.50;99.90
16408;DHT22;8313;49.894;8.084;2022-10-16T05:49:12;15.50;99.90
16408;DHT22;8313;49.894;8.084;2022-10-16T05:51:38;15.50;99.90
16408;DHT22;8313;49.894;8.084;2022-10-16T05:54:03;15.50;99.90
16408;DHT22;8313;49.894;8.084;2022-10-16T05:56:29;15.50;99.90
16408;DHT22;8313;49.894;8.084;2022-10-16T05:58:55;15.50;99.90
16408;DHT22;8313;49.894;8.084;2022-10-16T06:01:21;15.50;99.90
16408;DHT22;8313;49.894;8.084;2022-10-16T06:03:50;15.50;99.90
16408;DHT22;8313;49.894;8.084;2022-10-16T06:06:21;15.50;99.90
16408;DHT22;8313;49.894;8.084;2022-10-16T06:08:48;15.50;99.90
16408;DHT22;8313;49.894;8.084;2022-10-16T06:11:17;15.50;99.90
16408;DHT22;8313;49.894;8.084;2022-10-16T06:13:44;15.50;99.90
16408;DHT22;8313;49.894;8.084;2022-10-16T06:16:12;15.50;99.90
16408;DHT22;8313;49.894;8.084;2022-10-16T06:18:38;15.50;99.90
16408;DHT22;8313;49.894;8.084;2022-10-16T06:21:12;15.50;99.90
16408;DHT22;8313;49.894;8.084;2022-10-16T06:23:39;15.50;99.90
16408;DHT22;8313;49.894;8.084;2022-10-16T06:26:10;15.50;99.90
16408;DHT22;8313;49.894;8.084;2022-10-16T06:28:36;15.50;99.90
16408;DHT22;8313;49.894;8.084;2022-10-16T06:31:04;15.50;99.90
16408;DHT22;8313;49.894;8.084;2022-10-16T06:33:30;15.50;99.90
16408;DHT22;8313;49.894;8.084;2022-10-16T06:36:16;15.50;99.90
16408;DHT22;8313;49.894;8.084;2022-10-16T06:38:43;15.50;99.90
16408;DHT22;8313;49.894;8.084;2022-10-16T06:41:12;15.50;99.90
16408;DHT22;8313;49.894;8.084;2022-10-16T06:43:38;15.50;99.90
16408;DHT22;8313;49.894;8.084;2022-10-16T06:46:06;15.50;99.90
16408;DHT22;8313;49.894;8.084;2022-10-16T06:48:35;15.50;99.90
16408;DHT22;8313;49.894;8.084;2022-10-16T06:51:04;15.50;99.90
16408;DHT22;8313;49.894;8.084;2022-10-16T06:53:33;15.50;99.90
16408;DHT22;8313;49.894;8.084;2022-10-16T06:56:10;15.50;99.90
16408;DHT22;8313;49.894;8.084;2022-10-16T06:58:37;15.50;99.90
16408;DHT22;8313;49.894;8.084;2022-10-16T07:01:03;15.50;99.90
16408;DHT22;8313;49.894;8.084;2022-10-16T07:03:29;15.50;99.90
16408;DHT22;8313;49.894;8.084;2022-10-16T07:05:55;15.40;99.90
16408;DHT22;8313;49.894;8.084;2022-10-16T07:08:21;15.50;99.90
16408;DHT22;8313;49.894;8.084;2022-10-16T07:10:47;15.50;99.90
16408;DHT22;8313;49.894;8.084;2022-10-16T07:13:13;15.50;99.90
16408;DHT22;8313;49.894;8.084;2022-10-16T07:15:40;15.50;99.90
16408;DHT22;8313;49.894;8.084;2022-10-16T07:18:06;15.50;99.90
16408;DHT22;8313;49.894;8.084;2022-10-16T07:20:32;15.50;99.90
16408;DHT22;8313;49.894;8.084;2022-10-16T07:22:58;15.50;99.90
16408;DHT22;8313;49.894;8.084;2022-10-16T07:25:24;15.50;99.90
16408;DHT22;8313;49.894;8.084;2022-10-16T07:27:50;15.50;99.90
16408;DHT22;8313;49.894;8.084;2022-10-16T07:30:15;15.50;99.90
16408;DHT22;8313;49.894;8.084;2022-10-16T07:32:41;15.50;99.90
16408;DHT22;8313;49.894;8.084;2022-10-16T07:35:07;15.50;99.90
16408;DHT22;8313;49.894;8.084;2022-10-16T07:37:33;15.50;99.90
16408;DHT22;8313;49.894;8.084;2022-10-16T07:39:59;15.50;99.90
16408;DHT22;8313;49.894;8.084;2022-10-16T07:42:25;15.50;99.90
16408;DHT22;8313;49.894;8.084;2022-10-16T07:44:51;15.50;99.90
16408;DHT22;8313;49.894;8.084;2022-10-16T07:47:17;15.50;99.90
16408;DHT22;8313;49.894;8.084;2022-10-16T07:49:43;15.50;99.90
16408;DHT22;8313;49.894;8.084;2022-10-16T07:52:08;15.50;99.90
16408;DHT22;8313;49.894;8.084;2022-10-16T07:54:34;15.50;99.90
16408;DHT22;8313;49.894;8.084;2022-10-16T07:57:00;15.50;99.90
16408;DHT22;8313;49.894;8.084;2022-10-16T07:59:26;15.60;99.90
16408;DHT22;8313;49.894;8.084;2022-10-16T08:01:52;15.60;99.90
16408;DHT22;8313;49.894;8.084;2022-10-16T08:04:17;15.60;99.90
16408;DHT22;8313;49.894;8.084;2022-10-16T08:06:43;15.60;99.90
16408;DHT22;8313;49.894;8.084;2022-10-16T08:09:09;15.60;99.90
16408;DHT22;8313;49.894;8.084;2022-10-16T08:11:34;15.60;99.90
16408;DHT22;8313;49.894;8.084;2022-10-16T08:14:01;15.60;99.90
16408;DHT22;8313;49.894;8.084;2022-10-16T08:16:26;15.60;99.90
16408;DHT22;8313;49.894;8.084;2022-10-16T08:18:52;15.60;99.90
16408;DHT22;8313;49.894;8.084;2022-10-16T08:21:21;15.60;99.90
16408;DHT22;8313;49.894;8.084;2022-10-16T08:23:48;15.60;99.90
16408;DHT22;8313;49.894;8.084;2022-10-16T08:26:15;15.60;99.90
16408;DHT22;8313;49.894;8.084;2022-10-16T08:28:40;15.60;99.90
16408;DHT22;8313;49.894;8.084;2022-10-16T08:31:11;15.70;99.90
16408;DHT22;8313;49.894;8.084;2022-10-16T08:33:38;15.70;99.90
16408;DHT22;8313;49.894;8.084;2022-10-16T08:36:06;15.70;99.90
16408;DHT22;8313;49.894;8.084;2022-10-16T08:38:33;15.70;99.90
16408;DHT22;8313;49.894;8.084;2022-10-16T08:50:14;15.70;99.90
16408;DHT22;8313;49.894;8.084;2022-10-16T08:52:44;15.70;99.90
16408;DHT22;8313;49.894;8.084;2022-10-16T08:57:55;15.80;99.90
16408;DHT22;8313;49.894;8.084;2022-10-16T09:00:40;15.80;99.90
16408;DHT22;8313;49.894;8.084;2022-10-16T09:03:32;15.80;99.90
16408;DHT22;8313;49.894;8.084;2022-10-16T09:19:54;15.90;99.90
16408;DHT22;8313;49.894;8.084;2022-10-16T09:22:27;15.90;99.90
16408;DHT22;8313;49.894;8.084;2022-10-16T09:24:56;16.00;99.90
16408;DHT22;8313;49.894;8.084;2022-10-16T09:27:26;16.00;99.90
16408;DHT22;8313;49.894;8.084;2022-10-16T09:29:51;16.00;99.90
16408;DHT22;8313;49.894;8.084;2022-10-16T09:32:19;16.00;99.90
16408;DHT22;8313;49.894;8.084;2022-10-16T09:34:49;16.10;99.90
16408;DHT22;8313;49.894;8.084;2022-10-16T09:37:19;16.10;99.90
16408;DHT22;8313;49.894;8.084;2022-10-16T09:39:52;16.10;99.90
16408;DHT22;8313;49.894;8.084;2022-10-16T09:42:28;16.10;99.90
16408;DHT22;8313;49.894;8.084;2022-10-16T09:44:56;16.20;99.90
16408;DHT22;8313;49.894;8.084;2022-10-16T09:47:31;16.20;99.90
16408;DHT22;8313;49.894;8.084;2022-10-16T09:50:20;16.20;99.90
16408;DHT22;8313;49.894;8.084;2022-10-16T09:52:47;16.20;99.90
16408;DHT22;8313;49.894;8.084;2022-10-16T09:55:15;16.20;99.90
16408;DHT22;8313;49.894;8.084;2022-10-16T09:57:53;16.20;99.90
16408;DHT22;8313;49.894;8.084;2022-10-16T10:00:21;16.30;99.90
16408;DHT22;8313;49.894;8.084;2022-10-16T10:02:48;16.30;99.90
16408;DHT22;8313;49.894;8.084;2022-10-16T10:07:45;16.30;99.90
16408;DHT22;8313;49.894;8.084;2022-10-16T10:10:26;16.40;99.90
16408;DHT22;8313;49.894;8.084;2022-10-16T10:12:53;16.50;99.90
16408;DHT22;8313;49.894;8.084;2022-10-16T10:15:20;16.50;99.90
16408;DHT22;8313;49.894;8.084;2022-10-16T10:17:55;16.50;99.90
16408;DHT22;8313;49.894;8.084;2022-10-16T10:22:55;16.70;99.90
16408;DHT22;8313;49.894;8.084;2022-10-16T10:25:51;16.70;99.90
16408;DHT22;8313;49.894;8.084;2022-10-16T10:31:38;16.70;99.90
16408;DHT22;8313;49.894;8.084;2022-10-16T10:36:56;16.80;99.90
16408;DHT22;8313;49.894;8.084;2022-10-16T10:39:36;16.80;99.90
16408;DHT22;8313;49.894;8.084;2022-10-16T10:47:50;16.90;99.90
16408;DHT22;8313;49.894;8.084;2022-10-16T10:53:44;17.00;99.90
16408;DHT22;8313;49.894;8.084;2022-10-16T11:02:34;17.10;99.90
16408;DHT22;8313;49.894;8.084;2022-10-16T11:08:02;17.20;99.90
16408;DHT22;8313;49.894;8.084;2022-10-16T11:10:38;17.20;99.90
16408;DHT22;8313;49.894;8.084;2022-10-16T11:13:19;17.30;99.90
16408;DHT22;8313;49.894;8.084;2022-10-16T11:15:48;17.30;99.90
16408;DHT22;8313;49.894;8.084;2022-10-16T11:18:36;17.30;99.90
16408;DHT22;8313;49.894;8.084;2022-10-16T11:21:07;17.40;99.90
16408;DHT22;8313;49.894;8.084;2022-10-16T11:23:41;17.50;99.90
16408;DHT22;8313;49.894;8.084;2022-10-16T11:26:16;17.50;99.90
16408;DHT22;8313;49.894;8.084;2022-10-16T11:28:49;17.50;99.90
16408;DHT22;8313;49.894;8.084;2022-10-16T11:34:09;17.70;99.90
16408;DHT22;8313;49.894;8.084;2022-10-16T11:39:30;17.80;99.90
16408;DHT22;8313;49.894;8.084;2022-10-16T11:42:11;17.80;99.90
16408;DHT22;8313;49.894;8.084;2022-10-16T11:55:47;18.20;99.90
16408;DHT22;8313;49.894;8.084;2022-10-16T12:01:16;18.30;99.90
16408;DHT22;8313;49.894;8.084;2022-10-16T12:06:43;18.40;99.90
16408;DHT22;8313;49.894;8.084;2022-10-16T12:09:32;18.40;99.90
16408;DHT22;8313;49.894;8.084;2022-10-16T12:11:58;18.50;99.90
16408;DHT22;8313;49.894;8.084;2022-10-16T12:14:37;18.50;99.90
16408;DHT22;8313;49.894;8.084;2022-10-16T12:17:23;18.50;99.90
16408;DHT22;8313;49.894;8.084;2022-10-16T12:22:52;18.80;99.90
16408;DHT22;8313;49.894;8.084;2022-10-16T12:28:01;18.80;99.90
16408;DHT22;8313;49.894;8.084;2022-10-16T12:30:31;18.90;99.90
16408;DHT22;8313;49.894;8.084;2022-10-16T12:33:00;18.90;99.90
16408;DHT22;8313;49.894;8.084;2022-10-16T12:35:42;19.00;99.90
16408;DHT22;8313;49.894;8.084;2022-10-16T12:38:29;19.10;99.90
16408;DHT22;8313;49.894;8.084;2022-10-16T12:43:44;19.20;99.90
16408;DHT22;8313;49.894;8.084;2022-10-16T12:48:41;19.30;99.90
16408;DHT22;8313;49.894;8.084;2022-10-16T12:57:26;19.40;99.90
16408;DHT22;8313;49.894;8.084;2022-10-16T13:02:40;19.40;99.90
16408;DHT22;8313;49.894;8.084;2022-10-16T13:05:42;19.40;99.90
16408;DHT22;8313;49.894;8.084;2022-10-16T13:12:04;19.50;99.90
16408;DHT22;8313;49.894;8.084;2022-10-16T13:17:21;19.50;99.90
16408;DHT22;8313;49.894;8.084;2022-10-16T13:20:14;19.50;99.90
16408;DHT22;8313;49.894;8.084;2022-10-16T13:23:05;19.60;99.90
16408;DHT22;8313;49.894;8.084;2022-10-16T13:28:13;19.50;99.90
16408;DHT22;8313;49.894;8.084;2022-10-16T13:30:41;19.50;99.90
16408;DHT22;8313;49.894;8.084;2022-10-16T13:33:15;19.50;99.90
16408;DHT22;8313;49.894;8.084;2022-10-16T13:35:54;19.50;99.90
16408;DHT22;8313;49.894;8.084;2022-10-16T13:38:22;19.50;99.90
16408;DHT22;8313;49.894;8.084;2022-10-16T13:40:53;19.50;99.90
16408;DHT22;8313;49.894;8.084;2022-10-16T13:43:23;19.50;99.90
16408;DHT22;8313;49.894;8.084;2022-10-16T13:45:55;19.50;99.90
16408;DHT22;8313;49.894;8.084;2022-10-16T13:48:20;19.50;99.90
16408;DHT22;8313;49.894;8.084;2022-10-16T13:50:46;19.50;99.90
16408;DHT22;8313;49.894;8.084;2022-10-16T13:53:23;19.60;99.90
16408;DHT22;8313;49.894;8.084;2022-10-16T13:55:49;19.50;99.90
16408;DHT22;8313;49.894;8.084;2022-10-16T13:58:14;19.50;99.90
16408;DHT22;8313;49.894;8.084;2022-10-16T14:00:52;19.50;99.90
16408;DHT22;8313;49.894;8.084;2022-10-16T14:03:20;19.50;99.90
16408;DHT22;8313;49.894;8.084;2022-10-16T14:05:54;19.50;99.90
16408;DHT22;8313;49.894;8.084;2022-10-16T14:08:22;19.50;99.90
16408;DHT22;8313;49.894;8.084;2022-10-16T14:10:53;19.50;99.90
16408;DHT22;8313;49.894;8.084;2022-10-16T14:15:54;19.50;99.90
16408;DHT22;8313;49.894;8.084;2022-10-16T14:18:23;19.50;99.90
16408;DHT22;8313;49.894;8.084;2022-10-16T14:20:50;19.60;99.90
16408;DHT22;8313;49.894;8.084;2022-10-16T14:23:38;19.50;99.90
16408;DHT22;8313;49.894;8.084;2022-10-16T14:28:37;19.60;99.90
16408;DHT22;8313;49.894;8.084;2022-10-16T14:33:45;19.60;99.90
16408;DHT22;8313;49.894;8.084;2022-10-16T14:38:39;19.60;99.90
16408;DHT22;8313;49.894;8.084;2022-10-16T14:41:05;19.60;99.90
16408;DHT22;8313;49.894;8.084;2022-10-16T14:43:39;19.60;99.90
16408;DHT22;8313;49.894;8.084;2022-10-16T14:46:13;19.60;99.90
16408;DHT22;8313;49.894;8.084;2022-10-16T14:48:43;19.60;99.90
16408;DHT22;8313;49.894;8.084;2022-10-16T14:51:16;19.60;99.90
16408;DHT22;8313;49.894;8.084;2022-10-16T14:53:42;19.60;99.90
16408;DHT22;8313;49.894;8.084;2022-10-16T14:56:16;19.60;99.90
16408;DHT22;8313;49.894;8.084;2022-10-16T14:58:42;19.70;99.90
16408;DHT22;8313;49.894;8.084;2022-10-16T15:01:10;19.70;99.90
16408;DHT22;8313;49.894;8.084;2022-10-16T15:03:37;19.70;99.90
16408;DHT22;8313;49.894;8.084;2022-10-16T15:06:03;19.70;99.90
16408;DHT22;8313;49.894;8.084;2022-10-16T15:08:32;19.70;99.90
16408;DHT22;8313;49.894;8.084;2022-10-16T15:10:58;19.70;99.90
16408;DHT22;8313;49.894;8.084;2022-10-16T15:13:24;19.70;99.90
16408;DHT22;8313;49.894;8.084;2022-10-16T15:15:49;19.70;99.90
16408;DHT22;8313;49.894;8.084;2022-10-16T15:18:15;19.70;99.90
16408;DHT22;8313;49.894;8.084;2022-10-16T15:20:47;19.70;99.90
16408;DHT22;8313;49.894;8.084;2022-10-16T15:23:18;19.70;99.90
16408;DHT22;8313;49.894;8.084;2022-10-16T15:25:53;19.70;99.90
16408;DHT22;8313;49.894;8.084;2022-10-16T15:28:20;19.70;99.90
16408;DHT22;8313;49.894;8.084;2022-10-16T15:30:46;19.70;99.90
16408;DHT22;8313;49.894;8.084;2022-10-16T15:33:20;19.70;99.90
16408;DHT22;8313;49.894;8.084;2022-10-16T15:35:47;19.60;99.90
16408;DHT22;8313;49.894;8.084;2022-10-16T15:38:14;19.60;99.90
16408;DHT22;8313;49.894;8.084;2022-10-16T15:40:40;19.60;99.90
16408;DHT22;8313;49.894;8.084;2022-10-16T15:43:07;19.60;99.90
16408;DHT22;8313;49.894;8.084;2022-10-16T15:45:33;19.60;99.90
16408;DHT22;8313;49.894;8.084;2022-10-16T15:47:59;19.60;99.90
16408;DHT22;8313;49.894;8.084;2022-10-16T15:50:25;19.60;99.90
16408;DHT22;8313;49.894;8.084;2022-10-16T15:52:51;19.60;99.90
16408;DHT22;8313;49.894;8.084;2022-10-16T15:55:17;19.60;99.90
16408;DHT22;8313;49.894;8.084;2022-10-16T15:57:47;19.60;99.90
16408;DHT22;8313;49.894;8.084;2022-10-16T16:00:15;19.60;99.90
16408;DHT22;8313;49.894;8.084;2022-10-16T16:02:42;19.60;99.90
16408;DHT22;8313;49.894;8.084;2022-10-16T16:05:09;19.60;99.90
16408;DHT22;8313;49.894;8.084;2022-10-16T16:07:37;19.60;99.90
16408;DHT22;8313;49.894;8.084;2022-10-16T16:10:07;19.60;99.90
16408;DHT22;8313;49.894;8.084;2022-10-16T16:12:33;19.60;99.90
16408;DHT22;8313;49.894;8.084;2022-10-16T16:14:59;19.60;99.90
16408;DHT22;8313;49.894;8.084;2022-10-16T16:17:25;19.60;99.90
16408;DHT22;8313;49.894;8.084;2022-10-16T16:19:51;19.60;99.90
16408;DHT22;8313;49.894;8.084;2022-10-16T16:22:17;19.50;99.90
16408;DHT22;8313;49.894;8.084;2022-10-16T16:24:43;19.50;99.90
16408;DHT22;8313;49.894;8.084;2022-10-16T16:27:09;19.50;99.90
16408;DHT22;8313;49.894;8.084;2022-10-16T16:29:35;19.60;99.90
16408;DHT22;8313;49.894;8.084;2022-10-16T16:32:00;19.50;99.90
16408;DHT22;8313;49.894;8.084;2022-10-16T16:34:27;19.50;99.90
16408;DHT22;8313;49.894;8.084;2022-10-16T16:36:54;19.50;99.90
16408;DHT22;8313;49.894;8.084;2022-10-16T16:39:20;19.40;99.90
16408;DHT22;8313;49.894;8.084;2022-10-16T16:41:46;19.40;99.90
16408;DHT22;8313;49.894;8.084;2022-10-16T16:44:12;19.50;99.90
16408;DHT22;8313;49.894;8.084;2022-10-16T16:46:39;19.50;99.90
16408;DHT22;8313;49.894;8.084;2022-10-16T16:49:05;19.40;99.90
16408;DHT22;8313;49.894;8.084;2022-10-16T16:51:32;19.40;99.90
16408;DHT22;8313;49.894;8.084;2022-10-16T16:53:58;19.40;99.90
16408;DHT22;8313;49.894;8.084;2022-10-16T16:56:25;19.40;99.90
16408;DHT22;8313;49.894;8.084;2022-10-16T16:58:54;19.40;99.90
16408;DHT22;8313;49.894;8.084;2022-10-16T17:01:21;19.30;99.90
16408;DHT22;8313;49.894;8.084;2022-10-16T17:03:49;19.30;99.90
16408;DHT22;8313;49.894;8.084;2022-10-16T17:06:15;19.30;99.90
16408;DHT22;8313;49.894;8.084;2022-10-16T17:08:42;19.30;99.90
16408;DHT22;8313;49.894;8.084;2022-10-16T17:11:16;19.30;99.90
16408;DHT22;8313;49.894;8.084;2022-10-16T17:13:42;19.20;99.90
16408;DHT22;8313;49.894;8.084;2022-10-16T17:16:09;19.20;99.90
16408;DHT22;8313;49.894;8.084;2022-10-16T17:18:35;19.20;99.90
16408;DHT22;8313;49.894;8.084;2022-10-16T17:21:02;19.20;99.90
16408;DHT22;8313;49.894;8.084;2022-10-16T17:23:28;19.10;99.90
16408;DHT22;8313;49.894;8.084;2022-10-16T17:25:55;19.10;99.90
16408;DHT22;8313;49.894;8.084;2022-10-16T17:28:20;19.10;99.90
16408;DHT22;8313;49.894;8.084;2022-10-16T17:30:46;19.10;99.90
16408;DHT22;8313;49.894;8.084;2022-10-16T17:33:12;19.00;99.90
16408;DHT22;8313;49.894;8.084;2022-10-16T17:35:40;19.00;99.90
16408;DHT22;8313;49.894;8.084;2022-10-16T17:38:06;19.00;99.90
16408;DHT22;8313;49.894;8.084;2022-10-16T17:40:33;19.00;99.90
16408;DHT22;8313;49.894;8.084;2022-10-16T17:42:59;19.00;99.90
16408;DHT22;8313;49.894;8.084;2022-10-16T17:45:24;19.00;99.90
16408;DHT22;8313;49.894;8.084;2022-10-16T17:47:51;19.00;99.90
16408;DHT22;8313;49.894;8.084;2022-10-16T17:50:17;18.90;99.90
16408;DHT22;8313;49.894;8.084;2022-10-16T17:52:43;18.90;99.90
16408;DHT22;8313;49.894;8.084;2022-10-16T17:55:09;18.90;99.90
16408;DHT22;8313;49.894;8.084;2022-10-16T17:57:34;18.90;99.90
16408;DHT22;8313;49.894;8.084;2022-10-16T18:00:00;18.90;99.90
16408;DHT22;8313;49.894;8.084;2022-10-16T18:02:30;18.90;99.90
16408;DHT22;8313;49.894;8.084;2022-10-16T18:04:55;18.80;99.90
16408;DHT22;8313;49.894;8.084;2022-10-16T18:07:21;18.90;99.90
16408;DHT22;8313;49.894;8.084;2022-10-16T18:09:47;18.80;99.90
16408;DHT22;8313;49.894;8.084;2022-10-16T18:12:13;18.80;99.90